Time;durP1;ratioP1;P1;durP2;ratioP2;P2;SDS_P1;SDS_P2;PMS_P1;PMS_P2;Temp;Humidity;BMP_temperature;BMP_pressure;BME280_temperature;BME280_humidity;BME280_pressure;Samples;Min_cycle;Max_cycle;Signal;HPM_P1;HPM_P2
2023/04/22 09:01:32;;;;;;;1.80;1.10;;;;;;;11.24;69.27;98765.23;79993;1301;3013599;-58
2023/04/22 09:03:59;;;;;;;2.40;1.30;;;;;;;11.18;67.52;98766.90;78827;1306;3011589;-61
2023/04/22 09:06:26;;;;;;;2.80;1.10;;;;;;;11.18;66.84;98769.19;78850;1303;3013078;-61
2023/04/22 09:08:54;;;;;;;4.00;1.70;;;;;;;11.19;66.39;98771.73;77640;1303;3028455;-61
2023/04/22 09:11:21;;;;;;;3.10;1.30;;;;;;;11.20;65.96;98769.36;78870;1303;3013767;-62
2023/04/22 09:13:47;;;;;;;4.70;1.40;;;;;;;11.27;66.20;98772.73;77212;1307;3011659;-61
2023/04/22 09:16:15;;;;;;;2.90;1.30;;;;;;;11.34;66.50;98772.94;77881;1302;3028351;-60
2023/04/22 09:18:42;;;;;;;3.80;1.50;;;;;;;11.47;66.86;98777.55;79141;1302;3013086;-61
2023/04/22 09:21:09;;;;;;;3.30;1.20;;;;;;;11.53;65.89;98775.39;79305;1304;3011835;-64
2023/04/22 09:23:51;;;;;;;2.10;1.30;;;;;;;11.62;65.78;98782.20;77946;1303;3028825;-63
2023/04/22 09:26:20;;;;;;;2.90;1.00;;;;;;;11.71;64.95;98782.76;78072;1301;3070120;-63
2023/04/22 09:28:48;;;;;;;6.10;1.30;;;;;;;11.64;64.50;98786.79;79576;1298;3011506;-60
2023/04/22 09:31:17;;;;;;;4.80;1.20;;;;;;;11.59;65.06;98787.71;78760;1298;3011576;-65
2023/04/22 09:33:51;;;;;;;3.70;1.20;;;;;;;11.71;65.47;98786.07;79286;1301;3013285;-62
2023/04/22 09:36:27;;;;;;;3.10;1.20;;;;;;;11.73;65.35;98788.26;78192;1298;3049225;-64
2023/04/22 09:39:03;;;;;;;4.40;1.50;;;;;;;11.71;65.54;98790.81;78708;1298;3011626;-60
2023/04/22 09:41:37;;;;;;;2.60;1.60;;;;;;;11.50;65.94;98796.27;78846;1303;3013564;-65
2023/04/22 09:44:10;;;;;;;3.00;1.20;;;;;;;11.63;65.50;98797.73;79359;1303;3011820;-65
2023/04/22 09:46:40;;;;;;;3.00;1.00;;;;;;;11.34;64.93;98800.27;78085;1302;3053543;-61
2023/04/22 09:49:07;;;;;;;3.60;1.10;;;;;;;11.32;66.11;98805.69;79233;1298;3013076;-67
2023/04/22 09:51:34;;;;;;;3.70;1.10;;;;;;;11.20;66.89;98806.39;79200;1304;3011718;-61
2023/04/22 09:54:05;;;;;;;2.20;1.20;;;;;;;11.02;67.95;98807.11;77972;1301;3049503;-62
2023/04/22 09:56:48;;;;;;;4.40;1.00;;;;;;;10.93;67.97;98806.05;79206;1297;3013374;-62
2023/04/22 09:59:27;;;;;;;2.30;1.10;;;;;;;11.01;67.71;98807.61;77990;1302;3050721;-61
2023/04/22 10:01:59;;;;;;;3.00;1.40;;;;;;;10.94;67.84;98804.73;77945;1297;3051879;-63
2023/04/22 10:04:25;;;;;;;3.10;1.20;;;;;;;10.93;67.48;98806.40;79278;1302;3011979;-63
2023/04/22 10:06:53;;;;;;;3.20;1.20;;;;;;;11.06;67.25;98808.59;78012;1302;3025675;-65
2023/04/22 10:09:21;;;;;;;3.70;1.50;;;;;;;11.12;67.48;98810.86;78972;1298;3018815;-63
2023/04/22 10:11:52;;;;;;;3.10;1.00;;;;;;;11.11;66.99;98806.30;79182;1296;3013526;-63
2023/04/22 10:14:21;;;;;;;2.30;0.90;;;;;;;11.31;66.42;98814.00;78035;1299;3053224;-62
2023/04/22 10:16:48;;;;;;;2.60;1.00;;;;;;;11.32;65.43;98811.64;79509;1299;3015872;-62
2023/04/22 10:19:21;;;;;;;6.10;1.50;;;;;;;11.26;64.20;98814.67;79414;1299;3011982;-60
2023/04/22 10:21:52;;;;;;;2.10;0.90;;;;;;;11.46;64.15;98814.13;78192;1298;3068626;-62
2023/04/22 10:24:19;;;;;;;1.30;0.70;;;;;;;11.54;63.28;98815.59;79456;1295;3013405;-58
2023/04/22 10:26:49;;;;;;;1.40;1.00;;;;;;;11.68;62.73;98815.60;79167;1294;3011707;-57
2023/04/22 10:29:17;;;;;;;2.30;0.80;;;;;;;11.65;62.93;98814.10;79457;1295;3013065;-61
2023/04/22 10:31:51;;;;;;;2.10;0.90;;;;;;;11.75;62.92;98818.27;79461;1295;3013459;-60
2023/04/22 10:34:19;;;;;;;3.60;0.90;;;;;;;11.96;62.65;98819.27;78209;1298;3052525;-62
2023/04/22 10:36:54;;;;;;;1.80;1.00;;;;;;;12.34;62.24;98807.29;79489;1298;3014588;-56
2023/04/22 10:39:22;;;;;;;2.60;1.00;;;;;;;12.48;61.11;98816.19;78127;1295;3050963;-55
2023/04/22 10:41:56;;;;;;;1.80;0.90;;;;;;;12.48;61.55;98816.19;79415;1299;3013204;-59
2023/04/22 10:44:26;;;;;;;4.80;1.10;;;;;;;12.57;60.67;98814.96;78163;1295;3052946;-59
2023/04/22 10:46:57;;;;;;;4.50;1.10;;;;;;;12.63;61.34;98817.14;79777;1295;3013250;-58
2023/04/22 10:49:25;;;;;;;1.60;0.90;;;;;;;12.65;60.93;98818.91;78236;1298;3053056;-59
2023/04/22 10:51:59;;;;;;;2.00;1.30;;;;;;;12.73;60.67;98816.48;79366;1300;3013664;-57
2023/04/22 10:54:27;;;;;;;1.50;1.00;;;;;;;12.86;60.02;98818.30;78214;1298;3050004;-56
2023/04/22 10:57:00;;;;;;;7.90;1.70;;;;;;;13.07;59.97;98818.35;79508;1294;3018530;-58
2023/04/22 10:59:33;;;;;;;3.90;1.30;;;;;;;13.28;58.70;98818.23;78146;1294;3053887;-58
2023/04/22 11:02:03;;;;;;;6.70;2.00;;;;;;;13.55;57.75;98815.86;79392;1295;3011959;-58
2023/04/22 11:04:32;;;;;;;2.60;1.60;;;;;;;13.85;56.37;98813.38;78175;1298;3052297;-59
2023/04/22 11:07:19;;;;;;;3.90;1.70;;;;;;;13.92;56.64;98812.23;79416;1299;3021084;-57
2023/04/22 11:10:06;;;;;;;6.60;3.20;;;;;;;14.04;55.27;98807.56;78158;1295;3050540;-58
2023/04/22 11:12:34;;;;;;;3.50;1.90;;;;;;;14.43;55.16;98810.15;78317;1294;3055967;-57
2023/04/22 11:15:16;;;;;;;3.30;1.40;;;;;;;14.69;54.58;98806.69;79354;1294;3011636;-56
2023/04/22 11:17:45;;;;;;;3.30;1.30;;;;;;;14.67;54.08;98810.23;78196;1295;3054045;-57
2023/04/22 11:20:16;;;;;;;4.10;1.30;;;;;;;14.41;55.43;98814.25;79411;1300;3013434;-55
2023/04/22 11:22:45;;;;;;;4.60;1.40;;;;;;;14.00;58.98;98823.38;78280;1294;3052138;-57
2023/04/22 11:25:13;;;;;;;4.20;1.30;;;;;;;13.42;62.34;98825.73;79503;1294;3012796;-59
2023/04/22 11:27:43;;;;;;;3.20;1.50;;;;;;;13.16;63.65;98825.89;79062;1294;3011802;-58
2023/04/22 11:30:11;;;;;;;5.40;1.20;;;;;;;13.05;64.43;98829.79;79428;1298;3013472;-57
2023/04/22 11:32:42;;;;;;;4.00;1.70;;;;;;;12.78;63.90;98830.17;79468;1294;3013266;-57
2023/04/22 11:35:12;;;;;;;8.40;1.60;;;;;;;12.38;64.25;98828.39;78130;1299;3050513;-56
2023/04/22 11:37:43;;;;;;;4.70;2.20;;;;;;;12.33;64.31;98831.91;79529;1298;3013873;-57
2023/04/22 11:40:24;;;;;;;9.70;1.90;;;;;;;12.31;65.09;98832.44;78358;1299;3052498;-57
2023/04/22 11:42:52;;;;;;;5.40;1.60;;;;;;;12.66;65.08;98830.98;78151;1300;3067794;-60
2023/04/22 11:45:19;;;;;;;3.80;1.40;;;;;;;12.88;64.67;98829.21;79536;1294;3013080;-58
2023/04/22 11:47:46;;;;;;;2.80;1.30;;;;;;;12.74;61.18;98832.06;79417;1294;3014058;-57
2023/04/22 11:50:14;;;;;;;4.60;1.00;;;;;;;12.76;61.38;98828.92;78350;1299;3052676;-58
2023/04/22 11:52:43;;;;;;;2.60;1.10;;;;;;;12.62;60.56;98832.15;79462;1299;3013000;-59
2023/04/22 11:55:37;;;;;;;4.40;1.20;;;;;;;12.53;61.09;98829.30;79443;1294;3011807;-58
2023/04/22 11:58:06;;;;;;;5.70;1.40;;;;;;;12.77;61.68;98826.55;78123;1300;3069766;-62
2023/04/22 12:00:39;;;;;;;5.10;1.50;;;;;;;12.85;61.13;98822.73;79651;1295;3013067;-57
2023/04/22 12:03:13;;;;;;;;;;;;;;;12.86;61.66;98820.23;78230;1294;3049473;-54
2023/04/22 12:05:59;;;;;;;6.20;1.20;;;;;;;12.93;61.55;98825.98;79573;1300;3011967;-59
2023/04/22 12:08:31;;;;;;;2.30;1.30;;;;;;;12.79;61.10;98827.45;78162;1299;3049786;-58
2023/04/22 12:11:00;;;;;;;4.80;1.20;;;;;;;12.80;61.17;98824.60;79310;1300;3011579;-58
2023/04/22 12:13:35;;;;;;;2.80;1.20;;;;;;;12.77;61.23;98823.00;78051;1297;3052224;-58
2023/04/22 12:16:06;;;;;;;4.70;1.40;;;;;;;12.63;61.28;98827.44;78800;1296;3012278;-59
2023/04/22 12:18:37;;;;;;;4.00;1.00;;;;;;;12.70;61.43;98826.01;79402;1300;3011592;-57
2023/04/22 12:21:12;;;;;;;1.60;0.80;;;;;;;12.95;61.26;98825.84;78425;1298;3051217;-62
2023/04/22 12:23:45;;;;;;;2.00;1.20;;;;;;;13.22;59.57;98825.37;78803;1295;3011787;-58
2023/04/22 12:26:12;;;;;;;3.50;1.30;;;;;;;13.41;58.96;98823.22;79249;1299;3011620;-60
2023/04/22 12:28:40;;;;;;;3.70;1.10;;;;;;;13.58;59.31;98821.80;78114;1299;3026594;-59
2023/04/22 12:31:07;;;;;;;4.80;1.10;;;;;;;13.60;59.69;98824.61;79627;1295;3013594;-60
2023/04/22 12:33:34;;;;;;;3.80;1.30;;;;;;;13.62;59.07;98826.39;79465;1295;3014626;-62
2023/04/22 12:36:02;;;;;;;2.10;1.00;;;;;;;13.54;57.88;98825.59;78223;1299;3052489;-61
2023/04/22 12:38:29;;;;;;;2.90;1.10;;;;;;;13.51;58.73;98823.95;79390;1294;3013960;-61
2023/04/22 12:40:56;;;;;;;2.00;1.00;;;;;;;13.50;58.63;98820.17;79411;1294;3012008;-60
2023/04/22 12:43:24;;;;;;;5.30;1.30;;;;;;;13.44;59.09;98818.00;78319;1298;3049461;-60
2023/04/22 12:45:51;;;;;;;3.80;1.20;;;;;;;13.45;58.69;98819.70;79238;1295;3020921;-59
2023/04/22 12:48:17;;;;;;;3.60;1.40;;;;;;;13.46;58.91;98826.11;79432;1294;3013039;-58
2023/04/22 12:50:45;;;;;;;2.30;1.30;;;;;;;13.44;59.69;98824.88;78158;1300;3025883;-61
2023/04/22 12:53:12;;;;;;;3.80;1.20;;;;;;;13.39;60.57;98829.88;79547;1294;3013333;-59
2023/04/22 12:55:40;;;;;;;5.40;1.40;;;;;;;13.24;61.95;98832.64;79465;1294;3013087;-61
2023/04/22 12:58:08;;;;;;;2.50;1.10;;;;;;;13.16;65.23;98833.30;78161;1294;3048772;-58
2023/04/22 13:00:35;;;;;;;3.40;1.40;;;;;;;12.98;66.59;98829.79;79578;1292;3013635;-60
2023/04/22 13:03:02;;;;;;;2.90;1.40;;;;;;;12.90;66.98;98833.41;79531;1294;3013759;-60
2023/04/22 13:05:30;;;;;;;2.30;1.30;;;;;;;12.88;66.83;98835.91;78042;1298;3026015;-57
2023/04/22 13:07:57;;;;;;;5.90;1.50;;;;;;;12.91;67.09;98837.05;79275;1295;3013136;-60
2023/04/22 13:10:26;;;;;;;5.00;1.40;;;;;;;12.89;67.93;98838.05;79307;1297;3012985;-61
2023/04/22 13:12:55;;;;;;;6.20;1.10;;;;;;;12.87;67.31;98836.50;78069;1297;3049042;-60
2023/04/22 13:15:21;;;;;;;2.50;1.20;;;;;;;12.86;68.05;98845.70;79511;1297;3012987;-61
2023/04/22 13:17:48;;;;;;;2.60;1.20;;;;;;;12.83;68.97;98851.20;79383;1297;3012111;-62
2023/04/22 13:20:16;;;;;;;5.20;1.30;;;;;;;12.79;69.55;98850.46;78523;1294;3028848;-61
2023/04/22 13:22:42;;;;;;;3.80;1.40;;;;;;;12.71;69.39;98847.95;79579;1294;3013083;-60
2023/04/22 13:25:09;;;;;;;4.60;1.70;;;;;;;12.67;68.39;98854.96;79791;1297;3014002;-60
2023/04/22 13:27:37;;;;;;;4.70;1.80;;;;;;;12.61;67.43;98856.45;78151;1293;3025973;-61
2023/04/22 13:31:02;;;;;;;4.60;1.50;;;;;;;12.53;68.05;98859.69;80092;1301;3013309;-59
2023/04/22 13:33:28;;;;;;;5.00;1.20;;;;;;;12.43;70.22;98865.98;78897;1305;3013178;-59
2023/04/22 13:35:55;;;;;;;5.50;1.70;;;;;;;12.37;71.92;98872.02;78891;1306;3012095;-64
2023/04/22 13:38:23;;;;;;;6.30;1.80;;;;;;;12.28;73.30;98879.75;77625;1306;3027949;-60
2023/04/22 13:40:49;;;;;;;3.80;1.30;;;;;;;12.13;74.03;98889.48;79034;1307;3013275;-58
2023/04/22 13:43:17;;;;;;;7.80;2.30;;;;;;;11.89;74.64;98900.73;78098;1305;3011665;-58
2023/04/22 13:45:47;;;;;;;3.70;1.50;;;;;;;11.83;74.94;98898.17;78018;1303;3049320;-59
2023/04/22 13:48:14;;;;;;;2.80;1.00;;;;;;;11.74;75.62;98895.71;79179;1300;3013499;-60
2023/04/22 13:50:43;;;;;;;4.90;1.50;;;;;;;12.21;74.43;98895.04;78825;1303;3012854;-58
2023/04/22 13:53:10;;;;;;;3.70;1.20;;;;;;;12.79;72.83;98891.80;79039;1303;3013171;-59
2023/04/22 13:55:38;;;;;;;4.70;2.00;;;;;;;12.92;71.82;98894.60;79188;1297;3011548;-57
2023/04/22 13:58:07;;;;;;;3.60;1.90;;;;;;;12.84;71.79;98892.63;78102;1297;3050622;-59
2023/04/22 14:00:33;;;;;;;3.90;1.40;;;;;;;12.71;72.22;98890.06;79413;1296;3015363;-56
2023/04/22 14:03:00;;;;;;;3.90;1.70;;;;;;;12.62;73.22;98892.80;79261;1300;3011676;-60
2023/04/22 14:05:28;;;;;;;2.90;1.90;;;;;;;12.56;73.22;98900.05;78333;1295;3050151;-61
2023/04/22 14:07:54;;;;;;;5.00;2.20;;;;;;;12.47;73.16;98903.56;79413;1299;3013337;-60
2023/04/22 14:10:21;;;;;;;4.20;2.00;;;;;;;12.37;74.07;98901.50;79210;1299;3013344;-61
2023/04/22 14:12:49;;;;;;;5.20;2.00;;;;;;;12.33;73.92;98905.36;78174;1300;3026614;-60
2023/04/22 14:15:16;;;;;;;5.20;1.90;;;;;;;12.22;73.67;98902.52;79311;1298;3012880;-60
2023/04/22 14:17:47;;;;;;;5.20;2.20;;;;;;;12.10;74.09;98904.47;79451;1294;3011528;-63
2023/04/22 14:20:15;;;;;;;3.60;1.80;;;;;;;12.01;72.30;98908.44;77979;1300;3050291;-61
2023/04/22 14:22:42;;;;;;;4.80;1.60;;;;;;;11.97;70.96;98909.29;79290;1298;3021062;-59
2023/04/22 14:25:09;;;;;;;2.80;1.50;;;;;;;11.81;72.18;98913.10;79319;1295;3011566;-60
2023/04/22 14:27:37;;;;;;;2.60;1.40;;;;;;;11.90;71.64;98909.38;77961;1298;3050509;-62
2023/04/22 14:30:05;;;;;;;3.50;1.90;;;;;;;11.80;70.61;98910.69;79411;1294;3013369;-60
2023/04/22 14:32:33;;;;;;;4.20;1.30;;;;;;;11.85;69.86;98910.83;79227;1294;3013724;-62
2023/04/22 14:35:01;;;;;;;5.30;1.50;;;;;;;11.74;69.13;98910.60;77996;1300;3050311;-60
2023/04/22 14:37:28;;;;;;;4.30;1.70;;;;;;;11.99;69.14;98913.83;79267;1300;3013613;-60
2023/04/22 14:39:54;;;;;;;4.70;2.20;;;;;;;12.01;69.49;98918.67;79433;1295;3011678;-61
2023/04/22 14:42:23;;;;;;;6.20;2.20;;;;;;;12.10;69.35;98920.56;78157;1294;3025579;-60
2023/04/22 14:44:50;;;;;;;5.40;2.20;;;;;;;12.19;69.36;98917.83;79384;1294;3013592;-60
2023/04/22 14:47:16;;;;;;;3.40;2.00;;;;;;;12.34;70.09;98918.98;79375;1295;3011566;-60
2023/04/22 14:49:44;;;;;;;2.70;1.90;;;;;;;12.78;69.17;98921.18;78265;1299;3049586;-61
2023/04/22 14:52:11;;;;;;;5.00;2.40;;;;;;;13.06;66.06;98922.35;79378;1297;3018652;-62
2023/04/22 14:54:38;;;;;;;4.90;2.30;;;;;;;13.09;65.29;98919.83;79286;1300;3011401;-60
2023/04/22 14:57:05;;;;;;;6.00;2.60;;;;;;;13.39;65.47;98925.38;78019;1298;3028509;-59
2023/04/22 14:59:32;;;;;;;10.90;4.20;;;;;;;13.56;65.07;98924.70;79491;1295;3013913;-61
2023/04/22 15:01:59;;;;;;;9.10;3.70;;;;;;;13.67;65.16;98927.86;79708;1296;3011597;-58
2023/04/22 15:04:27;;;;;;;13.20;4.50;;;;;;;13.76;66.07;98928.69;78300;1299;3050094;-60
2023/04/22 15:06:56;;;;;;;11.10;5.40;;;;;;;14.03;64.63;98925.27;79269;1299;3018472;-60
2023/04/22 15:09:26;;;;;;;13.60;6.50;;;;;;;14.28;63.39;98926.54;78573;1299;3012259;-59
2023/04/22 15:11:55;;;;;;;15.00;7.00;;;;;;;14.22;63.61;98925.23;79228;1295;3013311;-62
2023/04/22 15:14:24;;;;;;;14.50;6.90;;;;;;;14.28;63.55;98926.70;78864;1294;3011547;-60
2023/04/22 15:16:50;;;;;;;13.80;6.70;;;;;;;14.39;63.49;98929.63;79265;1297;3012991;-63
2023/04/22 15:19:17;;;;;;;14.00;6.70;;;;;;;14.38;63.21;98932.02;79364;1298;3011466;-59
2023/04/22 15:21:45;;;;;;;15.90;6.40;;;;;;;14.55;62.96;98933.74;78146;1300;3025233;-61
2023/04/22 15:24:12;;;;;;;15.40;6.90;;;;;;;14.57;62.51;98929.52;79457;1300;3020528;-61
2023/04/22 15:26:39;;;;;;;14.90;6.90;;;;;;;14.69;62.46;98928.16;79403;1299;3011702;-60
2023/04/22 15:29:07;;;;;;;15.50;6.70;;;;;;;14.70;61.82;98931.42;78245;1299;3026339;-62
2023/04/22 15:31:34;;;;;;;14.70;6.00;;;;;;;14.62;62.04;98934.71;79395;1300;3013358;-61
2023/04/22 15:34:00;;;;;;;11.90;5.50;;;;;;;14.74;61.88;98933.52;79373;1300;3011929;-61
2023/04/22 15:36:29;;;;;;;9.70;4.50;;;;;;;14.89;59.89;98934.76;78095;1300;3028630;-61
2023/04/22 15:38:56;;;;;;;9.70;5.00;;;;;;;15.05;59.68;98935.94;79430;1300;3014887;-60
2023/04/22 15:41:22;;;;;;;11.20;4.30;;;;;;;15.24;58.88;98939.30;79253;1300;3011642;-61
2023/04/22 15:43:51;;;;;;;8.00;3.50;;;;;;;15.40;58.40;98937.89;78118;1300;3050081;-62
2023/04/22 15:46:18;;;;;;;7.90;3.70;;;;;;;15.38;58.40;98941.04;79529;1297;3014125;-64
2023/04/22 15:48:47;;;;;;;6.70;2.50;;;;;;;15.36;58.32;98940.68;79374;1294;3011739;-60
2023/04/22 15:51:15;;;;;;;5.60;2.10;;;;;;;15.43;57.02;98947.11;78186;1300;3050176;-61
2023/04/22 15:53:44;;;;;;;5.00;2.00;;;;;;;15.34;56.78;98950.20;79504;1299;3012895;-62
2023/04/22 15:56:11;;;;;;;4.50;2.10;;;;;;;15.27;57.63;98948.36;79469;1295;3011946;-61
2023/04/22 15:58:39;;;;;;;3.70;2.00;;;;;;;15.05;58.29;98953.94;78055;1296;3050408;-62
2023/04/22 16:01:06;;;;;;;5.20;2.20;;;;;;;14.70;60.04;98952.73;79509;1298;3018518;-60
2023/04/22 16:03:32;;;;;;;6.80;2.50;;;;;;;14.36;61.41;98954.73;79654;1296;3011481;-62
2023/04/22 16:06:00;;;;;;;5.40;2.10;;;;;;;14.16;61.40;98956.61;78336;1300;3025733;-60
2023/04/22 16:08:27;;;;;;;6.20;2.40;;;;;;;13.95;60.30;98962.52;79406;1299;3012602;-60
2023/04/22 16:10:53;;;;;;;10.60;2.80;;;;;;;13.77;61.32;98964.55;79391;1300;3011983;-61
2023/04/22 16:13:21;;;;;;;5.00;2.10;;;;;;;13.65;61.91;98969.37;78202;1300;3026546;-61
2023/04/22 16:15:49;;;;;;;4.50;2.20;;;;;;;13.45;61.97;98966.23;79334;1298;3013015;-60
2023/04/22 16:18:16;;;;;;;8.60;2.30;;;;;;;13.28;62.24;98967.73;79252;1300;3013634;-60
2023/04/22 16:20:43;;;;;;;3.40;2.20;;;;;;;13.07;62.87;98973.43;78059;1300;3050354;-62
2023/04/22 16:23:10;;;;;;;8.20;3.00;;;;;;;12.88;64.32;98984.88;79315;1299;3013188;-61
2023/04/22 16:25:37;;;;;;;5.70;3.30;;;;;;;12.83;64.26;98986.02;79330;1294;3012888;-61
2023/04/22 16:28:05;;;;;;;4.40;2.50;;;;;;;12.76;64.18;98991.44;78114;1299;3028175;-61
2023/04/22 16:30:31;;;;;;;5.50;2.60;;;;;;;12.68;64.26;98989.84;79269;1299;3012642;-62
2023/04/22 16:32:58;;;;;;;7.10;3.00;;;;;;;12.59;65.18;98993.52;79323;1298;3011743;-63
2023/04/22 16:35:26;;;;;;;6.60;3.20;;;;;;;12.42;67.07;98994.75;78040;1300;3025700;-62
2023/04/22 16:37:52;;;;;;;5.80;3.20;;;;;;;12.34;66.51;98996.26;79470;1297;3012855;-61
2023/04/22 16:40:19;;;;;;;11.90;4.50;;;;;;;12.34;65.87;99000.43;79348;1300;3011697;-61
2023/04/22 16:42:46;;;;;;;7.00;4.00;;;;;;;12.27;65.76;99004.09;78095;1295;3028784;-63
2023/04/22 16:45:13;;;;;;;6.60;3.70;;;;;;;12.18;66.12;99007.74;79406;1300;3019002;-61
2023/04/22 16:47:40;;;;;;;8.30;3.80;;;;;;;12.09;66.48;99005.64;79217;1300;3011468;-61
2023/04/22 16:50:12;;;;;;;7.60;3.80;;;;;;;12.04;66.28;99007.59;78217;1298;3026317;-61
2023/04/22 16:52:39;;;;;;;9.10;4.20;;;;;;;11.98;66.73;99008.05;79218;1300;3014147;-61
2023/04/22 16:55:07;;;;;;;9.10;4.10;;;;;;;11.90;67.19;99012.27;78202;1298;3028782;-62
2023/04/22 16:57:34;;;;;;;12.60;4.80;;;;;;;11.71;68.23;99016.96;79532;1300;3012545;-61
2023/04/22 17:00:01;;;;;;;10.50;4.00;;;;;;;11.65;68.41;99019.87;79290;1295;3011725;-60
2023/04/22 17:02:29;;;;;;;11.70;4.90;;;;;;;11.57;69.29;99030.95;78135;1296;3048339;-60
2023/04/22 17:04:55;;;;;;;9.80;4.60;;;;;;;11.45;69.90;99047.07;79443;1299;3013019;-62
2023/04/22 17:07:22;;;;;;;8.70;4.40;;;;;;;11.23;70.41;99061.55;79224;1299;3012015;-61
2023/04/22 17:09:50;;;;;;;7.70;4.10;;;;;;;10.95;71.54;99063.16;78034;1300;3028558;-60
2023/04/22 17:12:16;;;;;;;11.00;4.60;;;;;;;10.78;71.91;99065.89;79298;1300;3020648;-61
2023/04/22 17:14:43;;;;;;;13.10;5.50;;;;;;;10.68;72.48;99063.56;79236;1296;3011634;-61
2023/04/22 17:17:11;;;;;;;8.70;4.60;;;;;;;10.64;72.82;99065.73;78010;1300;3027980;-63
2023/04/22 17:19:38;;;;;;;11.10;5.40;;;;;;;10.65;72.47;99066.56;79420;1300;3013143;-59
2023/04/22 17:22:04;;;;;;;8.70;4.60;;;;;;;10.36;74.01;99072.48;79270;1301;3011529;-60
2023/04/22 17:24:32;;;;;;;8.50;4.80;;;;;;;10.29;74.56;99068.59;78078;1300;3026826;-62
2023/04/22 17:26:58;;;;;;;12.20;5.00;;;;;;;10.20;75.00;99071.95;79387;1300;3019060;-62
2023/04/22 17:29:25;;;;;;;9.20;4.50;;;;;;;10.21;74.75;99069.59;79267;1296;3011707;-60
2023/04/22 17:31:53;;;;;;;9.80;3.90;;;;;;;10.13;74.79;99070.30;78033;1300;3028105;-60
2023/04/22 17:34:20;;;;;;;6.20;3.10;;;;;;;10.16;75.11;99071.31;79363;1300;3013258;-62
2023/04/22 17:36:46;;;;;;;8.60;3.70;;;;;;;10.71;73.51;99075.59;79901;1296;3013348;-62
2023/04/22 17:39:14;;;;;;;7.90;4.10;;;;;;;11.21;71.69;99073.63;78157;1299;3026003;-59
2023/04/22 17:41:41;;;;;;;7.50;4.00;;;;;;;11.38;70.75;99075.23;79211;1295;3019670;-61
2023/04/22 17:44:08;;;;;;;7.40;4.00;;;;;;;11.26;70.24;99076.96;79282;1300;3011946;-60
2023/04/22 17:46:35;;;;;;;9.30;4.00;;;;;;;11.14;70.35;99078.50;78051;1299;3025858;-61
2023/04/22 17:49:02;;;;;;;8.30;4.70;;;;;;;10.90;70.88;99084.18;79261;1297;3013667;-61
2023/04/22 17:51:30;;;;;;;10.90;5.70;;;;;;;10.71;71.53;99084.41;79235;1298;3012764;-59
2023/04/22 17:53:59;;;;;;;16.00;5.50;;;;;;;10.62;71.69;99084.66;78032;1299;3052157;-61
2023/04/22 17:56:26;;;;;;;8.80;4.80;;;;;;;10.45;72.09;99083.68;79284;1300;3013245;-59
2023/04/22 17:58:52;;;;;;;9.80;5.40;;;;;;;10.37;72.25;99082.41;79382;1296;3012020;-60
2023/04/22 18:01:20;;;;;;;7.60;4.40;;;;;;;10.28;72.58;99079.66;78184;1298;3049054;-58
2023/04/22 18:03:47;;;;;;;11.00;4.70;;;;;;;10.22;72.89;99083.19;79368;1296;3018488;-59
2023/04/22 18:06:13;;;;;;;7.80;4.20;;;;;;;10.20;73.21;99077.58;79203;1296;3011934;-60
2023/04/22 18:08:41;;;;;;;13.00;4.70;;;;;;;10.22;72.65;99075.98;78169;1294;3030455;-60
2023/04/22 18:11:08;;;;;;;14.00;4.40;;;;;;;10.18;72.78;99077.50;79311;1296;3018541;-60
2023/04/22 18:13:35;;;;;;;15.20;6.50;;;;;;;10.11;73.41;99080.41;79343;1300;3011524;-60
2023/04/22 18:16:04;;;;;;;15.90;6.00;;;;;;;10.11;73.14;99081.47;78130;1300;3049511;-60
2023/04/22 18:18:31;;;;;;;13.50;4.70;;;;;;;10.09;73.11;99078.42;79596;1298;3012814;-61
2023/04/22 18:20:57;;;;;;;5.60;2.60;;;;;;;10.07;73.47;99078.08;79284;1300;3011322;-60
2023/04/22 18:23:25;;;;;;;6.80;3.00;;;;;;;10.68;72.20;99073.52;78415;1297;3051502;-58
2023/04/22 18:25:53;;;;;;;8.20;3.40;;;;;;;11.34;69.78;99073.41;79355;1298;3012873;-61
2023/04/22 18:28:19;;;;;;;9.00;4.20;;;;;;;11.35;68.48;99083.52;79292;1295;3012815;-62
2023/04/22 18:30:47;;;;;;;9.90;3.50;;;;;;;11.29;68.56;99081.67;78084;1300;3049680;-61
2023/04/22 18:33:14;;;;;;;13.90;4.50;;;;;;;11.08;68.71;99084.66;79317;1300;3018541;-60
2023/04/22 18:35:41;;;;;;;10.80;4.90;;;;;;;11.00;69.08;99082.42;79285;1300;3012914;-61
2023/04/22 18:38:08;;;;;;;14.20;6.00;;;;;;;10.90;69.41;99082.39;78106;1300;3028459;-60
2023/04/22 18:40:35;;;;;;;19.00;7.10;;;;;;;10.84;69.49;99080.71;79390;1300;3013333;-59
2023/04/22 18:43:02;;;;;;;12.80;4.80;;;;;;;10.76;69.68;99078.29;79323;1300;3012969;-59
2023/04/22 18:45:30;;;;;;;10.10;4.00;;;;;;;10.57;69.96;99080.20;78069;1299;3027020;-61
2023/04/22 18:47:57;;;;;;;7.50;3.00;;;;;;;10.40;70.80;99085.03;79433;1298;3018416;-60
2023/04/22 18:50:24;;;;;;;6.80;3.20;;;;;;;10.35;71.15;99081.86;79296;1297;3012970;-61
2023/04/22 18:52:52;;;;;;;9.30;3.20;;;;;;;10.41;70.61;99080.91;78024;1301;3052662;-61
2023/04/22 18:55:18;;;;;;;10.10;4.80;;;;;;;10.38;70.61;99081.48;79356;1299;3013568;-60
2023/04/22 18:57:45;;;;;;;6.70;3.20;;;;;;;10.34;70.82;99083.68;79315;1299;3013244;-60
2023/04/22 19:00:14;;;;;;;6.50;3.00;;;;;;;10.26;71.32;99082.95;78174;1298;3028636;-60
2023/04/22 19:02:40;;;;;;;6.60;3.50;;;;;;;10.22;71.35;99087.91;79503;1298;3013356;-61
2023/04/22 19:05:08;;;;;;;7.20;3.30;;;;;;;10.19;71.43;99097.71;79378;1295;3011710;-59
2023/04/22 19:07:37;;;;;;;7.90;4.00;;;;;;;10.18;71.48;99099.91;78033;1308;3052813;-62
2023/04/22 19:10:05;;;;;;;9.60;4.30;;;;;;;10.13;71.66;99098.10;79321;1300;3013545;-60
2023/04/22 19:12:32;;;;;;;7.50;3.50;;;;;;;10.09;71.75;99095.75;79417;1294;3013335;-61
2023/04/22 19:15:00;;;;;;;10.00;3.10;;;;;;;10.09;71.39;99095.95;78024;1300;3049561;-61
2023/04/22 19:17:27;;;;;;;9.90;3.60;;;;;;;10.07;71.40;99096.77;79249;1300;3012845;-58
2023/04/22 19:19:54;;;;;;;5.80;3.30;;;;;;;10.12;71.01;99099.23;79245;1301;3011558;-62
2023/04/22 19:22:22;;;;;;;6.30;2.80;;;;;;;10.10;71.02;99091.88;77930;1300;3028418;-61
2023/04/22 19:24:48;;;;;;;3.30;1.80;;;;;;;10.08;70.14;99093.91;79327;1299;3013636;-59
2023/04/22 19:27:15;;;;;;;4.80;2.10;;;;;;;10.05;69.66;99092.89;79180;1299;3011516;-62
2023/04/22 19:29:42;;;;;;;3.80;1.90;;;;;;;10.06;69.82;99098.04;78083;1299;3025970;-62
2023/04/22 19:32:10;;;;;;;3.60;1.90;;;;;;;10.07;69.45;99097.44;79250;1298;3013626;-61
2023/04/22 19:34:37;;;;;;;6.90;2.60;;;;;;;10.13;69.56;99093.61;79330;1301;3013007;-60
2023/04/22 19:37:05;;;;;;;6.70;2.70;;;;;;;10.16;69.61;99098.10;78115;1308;3052629;-60
2023/04/22 19:39:32;;;;;;;8.20;3.30;;;;;;;10.15;70.04;99104.12;79334;1300;3013109;-60
2023/04/22 19:42:02;;;;;;;8.40;3.80;;;;;;;10.12;70.37;99105.73;79330;1296;3011729;-62
2023/04/22 19:44:30;;;;;;;9.60;5.30;;;;;;;10.05;70.78;99106.66;78065;1300;3049553;-61
2023/04/22 19:46:56;;;;;;;21.70;8.40;;;;;;;10.04;71.02;99107.33;79227;1300;3013317;-63
2023/04/22 19:49:23;;;;;;;20.00;9.80;;;;;;;9.91;72.02;99114.59;79371;1301;3011656;-61
2023/04/22 19:51:51;;;;;;;12.80;5.40;;;;;;;9.89;72.88;99113.98;77979;1299;3028408;-61
2023/04/22 19:54:20;;;;;;;12.80;5.80;;;;;;;10.59;72.43;99113.50;79215;1299;3013102;-60
2023/04/22 19:56:47;;;;;;;19.50;6.60;;;;;;;11.13;70.67;99108.20;79411;1296;3011924;-60
2023/04/22 19:59:15;;;;;;;22.00;9.30;;;;;;;11.15;69.71;99111.55;78281;1308;3049929;-61
2023/04/22 20:01:42;;;;;;;20.30;9.60;;;;;;;10.89;70.10;99115.05;79296;1302;3013564;-60
2023/04/22 20:04:09;;;;;;;14.20;7.60;;;;;;;10.67;70.18;99110.41;79337;1297;3013506;-62
2023/04/22 20:06:39;;;;;;;11.40;6.30;;;;;;;10.62;70.14;99112.14;78012;1308;3052298;-59
2023/04/22 20:09:05;;;;;;;11.40;5.50;;;;;;;10.37;70.70;99115.30;79274;1301;3021359;-63
2023/04/22 20:11:32;;;;;;;12.10;5.50;;;;;;;10.20;71.25;99115.51;79196;1301;3011512;-60
2023/04/22 20:14:00;;;;;;;17.30;8.60;;;;;;;10.12;71.35;99113.77;78023;1309;3028181;-61
2023/04/22 20:16:27;;;;;;;18.40;8.30;;;;;;;9.91;72.92;99124.17;79243;1302;3012961;-62
2023/04/22 20:18:54;;;;;;;12.20;5.80;;;;;;;9.81;73.33;99129.88;79338;1300;3013312;-62
2023/04/22 20:21:22;;;;;;;12.00;6.00;;;;;;;9.64;74.66;99142.11;78141;1299;3026736;-60
2023/04/22 20:23:49;;;;;;;4.70;2.90;;;;;;;9.53;75.75;99140.00;79267;1299;3013447;-61